Time;durP1;ratioP1;P1;durP2;ratioP2;P2;SDS_P1;SDS_P2;PMS_P1;PMS_P2;Temp;Humidity;BMP_temperature;BMP_pressure;BME280_temperature;BME280_humidity;BME280_pressure;Samples;Min_cycle;Max_cycle;Signal;HPM_P1;HPM_P2
2022/07/22 00:00:57;;;;;;;0.10;0.10;;;17.80;99.90;;;;;;4981465;28;20267;-80
2022/07/22 00:03:22;;;;;;;0.10;0.10;;;17.80;99.90;;;;;;5001937;28;20583;-81
2022/07/22 00:05:48;;;;;;;0.10;0.10;;;17.90;99.90;;;;;;4987176;28;20585;-81
2022/07/22 00:08:13;;;;;;;0.10;0.10;;;17.70;99.90;;;;;;5001301;28;21183;-81
2022/07/22 00:10:39;;;;;;;0.10;0.10;;;17.60;99.90;;;;;;4995711;28;20535;-80
2022/07/22 00:13:05;;;;;;;0.10;0.10;;;17.70;99.90;;;;;;4996899;28;20200;-80
2022/07/22 00:15:30;;;;;;;0.10;0.10;;;17.70;99.90;;;;;;4995615;28;21836;-80
2022/07/22 00:17:56;;;;;;;0.10;0.10;;;17.70;99.90;;;;;;4999398;28;20698;-81
2022/07/22 00:20:21;;;;;;;0.10;0.10;;;17.70;99.90;;;;;;4999532;28;20732;-80
2022/07/22 00:22:47;;;;;;;0.10;0.10;;;17.80;99.90;;;;;;5006193;28;20180;-80
2022/07/22 00:25:13;;;;;;;0.10;0.10;;;17.60;99.90;;;;;;4995826;28;20220;-81
2022/07/22 00:27:38;;;;;;;0.10;0.10;;;17.60;99.90;;;;;;5006940;28;20184;-80
2022/07/22 00:30:04;;;;;;;0.10;0.10;;;17.70;99.90;;;;;;4992393;28;20504;-80
2022/07/22 00:32:30;;;;;;;0.10;0.10;;;17.70;99.90;;;;;;5002340;28;20342;-80
2022/07/22 00:34:56;;;;;;;0.10;0.10;;;17.70;99.90;;;;;;5005100;28;21014;-80
2022/07/22 00:37:21;;;;;;;0.10;0.10;;;17.70;99.90;;;;;;5004062;28;20572;-81
2022/07/22 00:39:47;;;;;;;0.10;0.10;;;17.60;99.90;;;;;;4982624;28;20180;-81
2022/07/22 00:42:14;;;;;;;0.10;0.10;;;17.60;99.90;;;;;;4994888;28;20184;-80
2022/07/22 00:44:39;;;;;;;0.10;0.10;;;17.40;99.90;;;;;;5001074;28;20483;-81
2022/07/22 00:47:05;;;;;;;0.10;0.10;;;17.30;99.90;;;;;;4984256;28;21178;-81
2022/07/22 00:49:31;;;;;;;0.10;0.10;;;17.30;99.90;;;;;;5005069;28;22554;-81
2022/07/22 00:51:57;;;;;;;0.10;0.10;;;17.30;99.90;;;;;;5002012;28;20481;-80
2022/07/22 00:54:22;;;;;;;0.10;0.10;;;17.10;99.90;;;;;;5004650;28;20199;-80
2022/07/22 00:56:48;;;;;;;0.10;0.10;;;16.90;99.90;;;;;;5004046;28;20266;-81
2022/07/22 00:59:14;;;;;;;0.10;0.10;;;16.80;99.90;;;;;;5017962;28;20274;-83
2022/07/22 01:01:39;;;;;;;0.10;0.10;;;16.60;99.90;;;;;;5019760;28;20187;-83
2022/07/22 01:04:05;;;;;;;0.10;0.10;;;16.60;99.90;;;;;;5022840;28;20224;-84
2022/07/22 01:06:32;;;;;;;0.10;0.10;;;16.50;99.90;;;;;;5023059;28;20211;-83
2022/07/22 01:08:58;;;;;;;0.10;0.10;;;16.50;99.90;;;;;;5026703;28;20188;-83
2022/07/22 01:11:24;;;;;;;0.10;0.10;;;16.20;99.90;;;;;;5021656;28;20500;-83
2022/07/22 01:13:51;;;;;;;0.10;0.10;;;16.30;99.90;;;;;;5021752;28;20442;-83
2022/07/22 01:16:17;;;;;;;0.10;0.10;;;16.30;99.90;;;;;;5018977;28;20445;-83
2022/07/22 01:18:44;;;;;;;0.10;0.10;;;16.30;99.90;;;;;;5021661;28;20460;-83
2022/07/22 01:21:11;;;;;;;0.10;0.10;;;16.40;99.90;;;;;;5019172;28;20444;-83
2022/07/22 01:23:37;;;;;;;0.10;0.10;;;16.30;99.90;;;;;;5028951;28;20477;-82
2022/07/22 01:26:04;;;;;;;0.10;0.10;;;16.20;99.90;;;;;;5025132;28;20450;-83
2022/07/22 01:28:29;;;;;;;0.10;0.10;;;16.10;99.90;;;;;;5028979;28;20857;-83
2022/07/22 01:30:55;;;;;;;0.10;0.10;;;16.10;99.90;;;;;;5005187;28;20454;-83
2022/07/22 01:33:22;;;;;;;0.10;0.10;;;16.20;99.90;;;;;;5027250;28;20274;-83
2022/07/22 01:35:47;;;;;;;0.10;0.10;;;16.20;99.90;;;;;;5006917;28;20219;-83
2022/07/22 01:38:14;;;;;;;0.10;0.10;;;16.20;99.90;;;;;;5013215;28;21151;-83
2022/07/22 01:40:41;;;;;;;0.10;0.10;;;16.20;99.90;;;;;;5023645;28;20819;-83
2022/07/22 01:43:06;;;;;;;0.10;0.10;;;16.10;99.90;;;;;;5037640;28;20480;-83
2022/07/22 01:45:32;;;;;;;0.10;0.10;;;16.10;99.90;;;;;;5023863;28;20493;-82
2022/07/22 01:47:58;;;;;;;0.10;0.10;;;15.90;99.90;;;;;;5025645;28;20176;-83
2022/07/22 01:50:24;;;;;;;0.10;0.10;;;15.80;99.90;;;;;;5018687;28;20198;-83
2022/07/22 01:52:50;;;;;;;0.10;0.10;;;15.80;99.90;;;;;;5025514;28;20187;-82
2022/07/22 01:55:16;;;;;;;0.10;0.10;;;15.90;99.90;;;;;;5026808;28;20454;-83
2022/07/22 01:57:41;;;;;;;0.10;0.10;;;15.90;99.90;;;;;;5016885;28;20517;-83
2022/07/22 02:00:10;;;;;;;0.10;0.10;;;15.70;99.90;;;;;;5004606;28;20188;-81
2022/07/22 02:02:35;;;;;;;0.10;0.10;;;15.50;99.90;;;;;;5006432;28;20188;-82
2022/07/22 02:05:02;;;;;;;0.10;0.10;;;15.50;99.90;;;;;;5005826;28;20488;-81
2022/07/22 02:07:27;;;;;;;0.10;0.10;;;15.50;99.90;;;;;;5008663;28;20188;-83
2022/07/22 02:09:53;;;;;;;0.10;0.10;;;15.70;99.90;;;;;;5000942;28;20505;-83
2022/07/22 02:12:19;;;;;;;0.10;0.10;;;15.60;99.90;;;;;;5002294;28;20184;-83
2022/07/22 02:14:45;;;;;;;0.10;0.10;;;15.70;99.90;;;;;;5007800;28;20196;-83
2022/07/22 02:17:10;;;;;;;0.10;0.10;;;15.70;99.90;;;;;;5000914;28;20219;-82
2022/07/22 02:19:36;;;;;;;0.10;0.10;;;15.70;99.90;;;;;;5009127;28;20494;-83
2022/07/22 02:22:01;;;;;;;0.10;0.10;;;15.60;99.90;;;;;;5007870;28;20192;-82
2022/07/22 02:24:27;;;;;;;0.10;0.10;;;15.60;99.90;;;;;;5002444;28;20228;-82
2022/07/22 02:26:52;;;;;;;0.10;0.10;;;15.60;99.90;;;;;;4996320;28;20192;-82
2022/07/22 02:29:19;;;;;;;0.10;0.10;;;15.70;99.90;;;;;;5001106;28;20192;-82
2022/07/22 02:31:45;;;;;;;0.10;0.10;;;15.70;99.90;;;;;;5003393;28;20219;-82
2022/07/22 02:34:10;;;;;;;0.10;0.10;;;15.80;99.90;;;;;;5006462;28;20871;-82
2022/07/22 02:36:36;;;;;;;0.10;0.10;;;15.90;99.90;;;;;;5005385;28;20667;-82
2022/07/22 02:39:03;;;;;;;0.10;0.10;;;15.80;99.90;;;;;;5004871;28;20267;-82
2022/07/22 02:41:28;;;;;;;0.10;0.10;;;15.90;99.90;;;;;;4997737;28;20193;-82
2022/07/22 02:43:54;;;;;;;0.10;0.10;;;15.90;99.90;;;;;;5004148;28;20894;-83
2022/07/22 02:46:24;;;;;;;0.10;0.10;;;15.90;99.90;;;;;;5002413;28;20536;-82
2022/07/22 02:48:50;;;;;;;0.10;0.10;;;15.90;99.90;;;;;;5003749;28;20180;-82
2022/07/22 02:51:15;;;;;;;0.10;0.10;;;15.80;99.90;;;;;;5000465;28;20527;-83
2022/07/22 02:53:41;;;;;;;0.10;0.10;;;15.90;99.90;;;;;;5008327;28;20439;-83
2022/07/22 02:56:07;;;;;;;0.10;0.10;;;15.90;99.90;;;;;;5001070;28;20251;-82
2022/07/22 02:58:32;;;;;;;0.10;0.10;;;15.70;99.90;;;;;;4997249;28;20715;-82
2022/07/22 03:00:58;;;;;;;0.10;0.10;;;15.80;99.90;;;;;;4977572;28;20267;-83
2022/07/22 03:03:23;;;;;;;0.10;0.10;;;15.90;99.90;;;;;;4992525;28;20820;-82
2022/07/22 03:05:49;;;;;;;0.10;0.10;;;15.80;99.90;;;;;;5005758;28;20544;-82
2022/07/22 03:08:15;;;;;;;0.10;0.10;;;15.80;99.90;;;;;;4982772;28;20204;-82
2022/07/22 03:10:40;;;;;;;0.10;0.10;;;15.70;99.90;;;;;;5010858;28;20610;-82
2022/07/22 03:13:06;;;;;;;0.10;0.10;;;15.70;99.90;;;;;;4993082;28;20213;-82
2022/07/22 03:15:31;;;;;;;0.10;0.10;;;15.70;99.90;;;;;;4997024;28;20184;-82
2022/07/22 03:17:57;;;;;;;0.10;0.10;;;15.80;99.90;;;;;;4995698;28;20192;-82
2022/07/22 03:20:22;;;;;;;0.10;0.10;;;15.60;99.90;;;;;;4989713;28;20680;-82
2022/07/22 03:22:48;;;;;;;0.10;0.10;;;15.70;99.90;;;;;;4990846;28;20289;-81
2022/07/22 03:25:13;;;;;;;0.10;0.10;;;15.70;99.90;;;;;;5000686;28;20235;-82
2022/07/22 03:27:39;;;;;;;0.10;0.10;;;15.60;99.90;;;;;;5003139;28;20176;-83
2022/07/22 03:30:05;;;;;;;0.10;0.10;;;15.60;99.90;;;;;;5002316;28;22141;-82
2022/07/22 03:32:31;;;;;;;0.10;0.10;;;15.60;99.90;;;;;;5003147;28;20181;-82
2022/07/22 03:34:56;;;;;;;0.10;0.10;;;15.70;99.90;;;;;;4993065;28;20474;-82
2022/07/22 03:37:22;;;;;;;0.10;0.10;;;15.60;99.90;;;;;;5004043;28;20199;-82
2022/07/22 03:39:48;;;;;;;0.10;0.10;;;15.70;99.90;;;;;;4997944;28;20200;-82
2022/07/22 03:42:13;;;;;;;0.10;0.10;;;15.50;99.90;;;;;;4991469;28;20252;-82
2022/07/22 03:44:39;;;;;;;0.10;0.10;;;15.70;99.90;;;;;;4983872;28;20269;-82
2022/07/22 03:47:04;;;;;;;0.10;0.10;;;15.70;99.90;;;;;;4995837;28;21374;-82
2022/07/22 03:49:31;;;;;;;0.10;0.10;;;15.70;99.90;;;;;;4997813;28;20208;-82
2022/07/22 03:51:56;;;;;;;0.10;0.10;;;15.60;99.90;;;;;;5001664;28;20970;-82
2022/07/22 03:54:22;;;;;;;0.10;0.10;;;15.70;99.90;;;;;;4983678;28;20537;-82
2022/07/22 03:56:47;;;;;;;0.10;0.10;;;15.70;99.90;;;;;;4993437;28;20647;-82
2022/07/22 03:59:13;;;;;;;0.10;0.10;;;15.70;99.90;;;;;;4988868;28;20235;-82
2022/07/22 04:01:39;;;;;;;0.10;0.10;;;15.80;99.90;;;;;;5014729;28;20190;-82
2022/07/22 04:04:04;;;;;;;0.10;0.10;;;15.70;99.90;;;;;;4998760;28;20215;-82
2022/07/22 04:06:30;;;;;;;0.10;0.10;;;15.80;99.90;;;;;;4991896;28;20238;-82
2022/07/22 04:08:55;;;;;;;0.10;0.10;;;15.70;99.90;;;;;;4994670;28;20184;-83
2022/07/22 04:11:21;;;;;;;0.10;0.10;;;15.80;99.90;;;;;;4970609;28;20193;-82
2022/07/22 04:13:47;;;;;;;0.10;0.10;;;16.00;99.90;;;;;;5006341;28;20185;-82
2022/07/22 04:16:12;;;;;;;0.10;0.10;;;16.00;99.90;;;;;;4971465;28;20188;-82
2022/07/22 04:18:38;;;;;;;0.10;0.10;;;16.00;99.90;;;;;;4997989;28;20188;-83
2022/07/22 04:21:04;;;;;;;0.10;0.10;;;16.00;99.90;;;;;;4997485;28;20219;-82
2022/07/22 04:23:29;;;;;;;0.10;0.10;;;15.90;99.90;;;;;;5011814;28;20557;-82
2022/07/22 04:25:55;;;;;;;0.10;0.10;;;15.90;99.90;;;;;;4991240;28;21098;-82
2022/07/22 04:28:21;;;;;;;0.10;0.10;;;15.90;99.90;;;;;;4995409;28;20576;-82
2022/07/22 04:30:47;;;;;;;0.10;0.10;;;15.80;99.90;;;;;;4981112;28;20195;-82
2022/07/22 04:33:12;;;;;;;0.10;0.10;;;15.80;99.90;;;;;;4983404;28;20448;-82
2022/07/22 04:35:38;;;;;;;0.10;0.10;;;15.80;99.90;;;;;;5004784;28;20181;-82
2022/07/22 04:38:04;;;;;;;0.10;0.10;;;15.90;99.90;;;;;;4998448;28;20188;-82
2022/07/22 04:40:29;;;;;;;0.10;0.10;;;15.90;99.90;;;;;;5003781;28;20199;-82
2022/07/22 04:42:55;;;;;;;0.10;0.10;;;15.80;99.90;;;;;;5000192;28;20280;-82
2022/07/22 04:45:20;;;;;;;0.10;0.10;;;15.90;99.90;;;;;;5000429;28;20355;-82
2022/07/22 04:47:46;;;;;;;0.10;0.10;;;15.80;99.90;;;;;;4983677;28;20181;-82
2022/07/22 04:50:12;;;;;;;0.10;0.10;;;15.80;99.90;;;;;;4975672;28;20240;-82
2022/07/22 04:52:37;;;;;;;0.10;0.10;;;15.90;99.90;;;;;;5000499;28;20192;-82
2022/07/22 04:55:03;;;;;;;0.10;0.10;;;15.90;99.90;;;;;;5011152;28;20234;-82
2022/07/22 04:57:29;;;;;;;0.10;0.10;;;16.00;99.90;;;;;;5000438;28;20235;-82
2022/07/22 04:59:55;;;;;;;0.10;0.10;;;16.00;99.90;;;;;;4986336;28;20452;-82
2022/07/22 05:02:21;;;;;;;0.10;0.10;;;16.00;99.90;;;;;;4983928;28;20201;-83
2022/07/22 05:04:47;;;;;;;0.10;0.10;;;16.20;99.90;;;;;;4987883;28;20490;-82
2022/07/22 05:07:13;;;;;;;0.10;0.10;;;16.20;99.90;;;;;;4998241;28;20216;-82
2022/07/22 05:09:38;;;;;;;0.10;0.10;;;16.20;99.90;;;;;;5004853;28;20950;-82
2022/07/22 05:12:04;;;;;;;0.10;0.10;;;16.20;99.90;;;;;;5006057;28;20234;-82
2022/07/22 05:14:30;;;;;;;0.10;0.10;;;16.20;99.90;;;;;;5006651;28;20189;-81
2022/07/22 05:16:55;;;;;;;0.10;0.10;;;16.40;99.90;;;;;;5017611;28;20199;-82
2022/07/22 05:19:21;;;;;;;0.10;0.10;;;16.30;99.90;;;;;;4995215;28;20184;-82
2022/07/22 05:21:46;;;;;;;0.10;0.10;;;16.30;99.90;;;;;;5022274;28;20192;-82
2022/07/22 05:24:12;;;;;;;0.10;0.10;;;16.40;99.90;;;;;;5014626;28;20218;-81
2022/07/22 05:26:38;;;;;;;0.10;0.10;;;16.30;99.90;;;;;;5000327;28;20210;-81
2022/07/22 05:29:04;;;;;;;0.10;0.10;;;16.30;99.90;;;;;;5014051;28;20230;-81
2022/07/22 05:31:29;;;;;;;0.10;0.10;;;16.30;99.90;;;;;;5005356;28;20193;-81
2022/07/22 05:33:55;;;;;;;0.10;0.10;;;16.40;99.90;;;;;;5009509;28;20180;-81
2022/07/22 05:36:21;;;;;;;0.10;0.10;;;16.40;99.90;;;;;;4991591;28;20634;-82
2022/07/22 05:38:47;;;;;;;0.10;0.10;;;16.50;99.90;;;;;;5007352;28;20256;-81
2022/07/22 05:41:12;;;;;;;0.10;0.10;;;16.40;99.90;;;;;;5005894;28;20191;-82
2022/07/22 05:43:38;;;;;;;0.10;0.10;;;16.30;99.90;;;;;;5005552;28;20809;-81
2022/07/22 05:46:04;;;;;;;0.10;0.10;;;16.40;99.90;;;;;;4986394;28;20201;-82
2022/07/22 05:48:29;;;;;;;0.10;0.10;;;16.50;99.90;;;;;;5007070;28;20247;-82
2022/07/22 05:50:55;;;;;;;0.10;0.10;;;16.70;99.90;;;;;;5004884;28;20204;-82
2022/07/22 05:53:20;;;;;;;0.10;0.10;;;16.70;99.90;;;;;;5014413;28;20200;-82
2022/07/22 05:55:46;;;;;;;0.10;0.10;;;16.60;99.90;;;;;;5026737;28;20191;-81
2022/07/22 05:58:11;;;;;;;0.10;0.10;;;16.60;99.90;;;;;;5019029;28;20314;-81
2022/07/22 06:00:39;;;;;;;0.10;0.10;;;16.70;99.90;;;;;;5010800;28;20180;-81
2022/07/22 06:03:05;;;;;;;0.10;0.10;;;16.80;99.90;;;;;;4992736;28;20271;-82
2022/07/22 06:05:30;;;;;;;0.10;0.10;;;17.00;99.90;;;;;;4991421;28;20483;-82
2022/07/22 06:07:56;;;;;;;0.10;0.10;;;17.20;99.90;;;;;;5003967;28;20598;-81
2022/07/22 06:10:21;;;;;;;0.10;0.10;;;16.90;99.90;;;;;;4999976;28;20188;-82
2022/07/22 06:12:47;;;;;;;0.10;0.10;;;16.90;99.90;;;;;;4991687;28;20191;-81
2022/07/22 06:15:12;;;;;;;0.10;0.10;;;17.00;99.90;;;;;;4991685;28;20188;-81
2022/07/22 06:17:38;;;;;;;0.10;0.10;;;16.70;99.90;;;;;;4992703;28;20196;-82
2022/07/22 06:20:04;;;;;;;0.10;0.10;;;16.70;99.90;;;;;;5001611;28;20231;-81
2022/07/22 06:22:29;;;;;;;0.10;0.10;;;16.70;99.90;;;;;;5009983;28;20208;-83
2022/07/22 06:24:55;;;;;;;0.10;0.10;;;16.90;99.90;;;;;;5014702;28;20522;-83
2022/07/22 06:27:20;;;;;;;0.10;0.10;;;17.00;99.90;;;;;;5013096;28;20271;-82
2022/07/22 06:29:46;;;;;;;0.10;0.10;;;17.10;99.90;;;;;;5008515;28;20188;-82
2022/07/22 06:32:11;;;;;;;0.10;0.10;;;17.10;99.90;;;;;;5010238;28;20180;-81
2022/07/22 06:34:36;;;;;;;0.10;0.10;;;17.10;99.90;;;;;;5017124;28;20199;-82
2022/07/22 06:37:02;;;;;;;0.10;0.10;;;17.00;99.90;;;;;;5011931;28;20184;-80
2022/07/22 06:39:28;;;;;;;0.10;0.10;;;17.00;99.90;;;;;;5001774;28;20282;-80
2022/07/22 06:41:53;;;;;;;0.10;0.10;;;17.10;99.90;;;;;;5001406;28;20198;-80
2022/07/22 06:44:19;;;;;;;0.10;0.10;;;16.90;99.90;;;;;;4982613;28;20695;-81
2022/07/22 06:46:44;;;;;;;0.10;0.10;;;16.90;99.90;;;;;;5018911;28;20270;-81
2022/07/22 06:49:10;;;;;;;0.10;0.10;;;17.00;99.90;;;;;;5012654;28;20194;-81
2022/07/22 06:51:35;;;;;;;0.10;0.10;;;17.10;99.90;;;;;;5001405;28;20639;-81
2022/07/22 06:54:01;;;;;;;0.10;0.10;;;17.00;99.90;;;;;;4987985;28;20617;-81
2022/07/22 06:56:26;;;;;;;0.10;0.10;;;17.00;99.90;;;;;;5009471;28;20210;-81
2022/07/22 06:58:52;;;;;;;0.10;0.10;;;17.20;99.90;;;;;;4987139;28;21025;-81
2022/07/22 07:01:18;;;;;;;0.10;0.10;;;17.30;99.90;;;;;;5025474;28;20541;-81
2022/07/22 07:03:44;;;;;;;0.10;0.10;;;17.40;99.90;;;;;;5027313;28;20499;-81
2022/07/22 07:06:11;;;;;;;0.10;0.10;;;17.50;99.90;;;;;;5012783;28;20275;-81
2022/07/22 07:08:37;;;;;;;0.10;0.10;;;17.60;99.90;;;;;;5012185;28;20199;-80
2022/07/22 07:11:03;;;;;;;0.10;0.10;;;17.60;99.90;;;;;;5023237;28;20450;-81
2022/07/22 07:13:29;;;;;;;0.10;0.10;;;17.40;99.90;;;;;;5030152;28;20492;-81
2022/07/22 07:15:55;;;;;;;0.10;0.10;;;17.60;99.90;;;;;;5010945;28;21110;-81
2022/07/22 07:18:20;;;;;;;0.10;0.10;;;17.60;99.90;;;;;;5024897;28;20787;-81
2022/07/22 07:20:46;;;;;;;0.10;0.10;;;17.60;99.90;;;;;;5006484;28;20573;-81
2022/07/22 07:23:11;;;;;;;0.10;0.10;;;17.50;99.90;;;;;;5031527;28;20207;-81
2022/07/22 07:25:37;;;;;;;0.10;0.10;;;17.70;99.90;;;;;;5029306;28;20219;-81
2022/07/22 07:28:03;;;;;;;0.10;0.10;;;17.70;99.90;;;;;;5019643;28;20195;-82
2022/07/22 07:30:28;;;;;;;0.10;0.10;;;18.00;99.90;;;;;;5010559;28;20596;-81
2022/07/22 07:32:54;;;;;;;0.10;0.10;;;17.90;99.90;;;;;;5015281;28;20183;-81
2022/07/22 07:35:20;;;;;;;0.10;0.10;;;17.90;99.90;;;;;;5009423;28;20187;-82
2022/07/22 07:37:46;;;;;;;0.10;0.10;;;17.90;99.90;;;;;;5024623;28;20290;-81
2022/07/22 07:40:11;;;;;;;0.10;0.10;;;18.10;99.90;;;;;;5004173;28;20916;-81
2022/07/22 07:42:37;;;;;;;0.10;0.10;;;18.10;99.90;;;;;;5023824;28;20552;-80
2022/07/22 07:45:04;;;;;;;0.10;0.10;;;17.90;99.90;;;;;;5006968;28;20710;-81
2022/07/22 07:47:29;;;;;;;0.10;0.10;;;18.00;99.90;;;;;;5027422;28;20458;-81
2022/07/22 07:49:57;;;;;;;0.10;0.10;;;18.30;99.90;;;;;;5022059;28;20453;-81
2022/07/22 07:52:22;;;;;;;0.10;0.10;;;18.20;99.90;;;;;;5019579;28;20565;-81
2022/07/22 07:54:48;;;;;;;0.10;0.10;;;18.20;99.90;;;;;;5024797;28;20439;-82
2022/07/22 07:57:13;;;;;;;0.10;0.10;;;18.10;99.90;;;;;;5025226;28;20692;-81
2022/07/22 07:59:39;;;;;;;0.10;0.10;;;18.00;99.90;;;;;;5000422;28;20608;-82
2022/07/22 08:02:06;;;;;;;0.10;0.10;;;17.60;99.90;;;;;;5001156;28;20227;-80
2022/07/22 08:04:32;;;;;;;0.10;0.10;;;17.50;99.90;;;;;;5010366;28;20543;-80
2022/07/22 08:06:58;;;;;;;0.10;0.10;;;17.60;99.90;;;;;;5006761;28;20875;-80
2022/07/22 08:09:23;;;;;;;0.10;0.10;;;17.60;99.90;;;;;;5002001;28;20199;-80
2022/07/22 08:11:50;;;;;;;0.10;0.10;;;17.80;99.90;;;;;;5019618;28;20218;-79
2022/07/22 08:14:16;;;;;;;0.10;0.10;;;18.00;99.90;;;;;;4999844;28;20844;-80
2022/07/22 08:16:41;;;;;;;0.10;0.10;;;18.20;99.90;;;;;;5002670;28;20452;-81
2022/07/22 08:19:07;;;;;;;0.10;0.10;;;18.30;99.90;;;;;;5005629;28;20196;-81
2022/07/22 08:21:33;;;;;;;0.10;0.10;;;18.40;99.90;;;;;;5004483;28;20652;-80
2022/07/22 08:23:58;;;;;;;0.10;0.10;;;18.50;99.90;;;;;;4994776;28;20222;-81
2022/07/22 08:26:24;;;;;;;0.10;0.10;;;18.40;99.90;;;;;;5005900;28;20283;-80
2022/07/22 08:28:49;;;;;;;0.10;0.10;;;18.40;99.90;;;;;;4987779;28;20211;-80
2022/07/22 08:31:15;;;;;;;0.10;0.10;;;18.30;99.90;;;;;;4988123;28;20675;-80
2022/07/22 08:33:40;;;;;;;0.10;0.10;;;18.30;99.90;;;;;;4983928;28;20669;-80
2022/07/22 08:36:06;;;;;;;0.10;0.10;;;18.10;99.90;;;;;;4982866;28;20589;-79
2022/07/22 08:38:32;;;;;;;0.10;0.10;;;18.00;99.90;;;;;;5007705;28;20184;-80
2022/07/22 08:40:57;;;;;;;0.10;0.10;;;17.90;99.90;;;;;;4992623;28;20187;-80
2022/07/22 08:43:24;;;;;;;0.10;0.10;;;18.00;99.90;;;;;;5012577;28;20708;-80
2022/07/22 08:45:50;;;;;;;0.10;0.10;;;18.20;99.90;;;;;;5012765;28;20226;-81
2022/07/22 08:48:16;;;;;;;0.10;0.10;;;18.20;99.90;;;;;;5009054;28;20443;-80
2022/07/22 08:50:42;;;;;;;0.10;0.10;;;18.20;99.90;;;;;;5002900;28;20452;-82
2022/07/22 08:53:10;;;;;;;0.10;0.00;;;18.10;99.90;;;;;;4981883;28;20446;-81
2022/07/22 08:55:47;;;;;;;0.10;0.10;;;18.30;99.90;;;;;;4991613;28;20538;-81
2022/07/22 08:58:13;;;;;;;0.10;0.10;;;18.40;99.90;;;;;;4988627;28;20483;-80
2022/07/22 09:00:39;;;;;;;0.10;0.10;;;18.40;99.90;;;;;;5009866;28;22207;-81
2022/07/22 09:03:23;;;;;;;0.10;0.10;;;18.30;99.90;;;;;;5005848;28;20817;-80
2022/07/22 09:05:50;;;;;;;0.10;0.10;;;18.10;99.90;;;;;;5000980;28;22289;-81
2022/07/22 09:08:16;;;;;;;0.10;0.10;;;18.00;99.90;;;;;;5003952;28;20439;-80
2022/07/22 09:10:42;;;;;;;0.10;0.10;;;17.90;99.90;;;;;;5010646;28;20435;-81
2022/07/22 09:13:08;;;;;;;0.10;0.10;;;18.00;99.90;;;;;;5006505;28;20188;-81
2022/07/22 09:15:40;;;;;;;0.10;0.10;;;18.20;99.90;;;;;;4989551;28;20185;-80
2022/07/22 09:18:07;;;;;;;0.10;0.10;;;18.30;99.90;;;;;;5006353;28;20443;-80
2022/07/22 09:20:37;;;;;;;0.10;0.10;;;18.60;99.90;;;;;;4985666;28;20443;-81
2022/07/22 09:23:09;;;;;;;0.10;0.10;;;18.80;99.90;;;;;;4990686;28;20454;-80
2022/07/22 09:25:36;;;;;;;0.10;0.10;;;18.60;99.90;;;;;;4990874;28;20569;-80
2022/07/22 09:28:05;;;;;;;0.10;0.10;;;18.80;99.90;;;;;;5007903;28;20447;-80
2022/07/22 09:30:31;;;;;;;0.10;0.00;;;18.70;99.90;;;;;;5006614;28;21464;-81
2022/07/22 09:32:57;;;;;;;0.10;0.00;;;18.90;99.90;;;;;;5006112;28;20930;-80
2022/07/22 09:35:24;;;;;;;0.10;0.00;;;18.60;99.90;;;;;;4986213;28;20453;-80
2022/07/22 09:38:01;;;;;;;0.10;0.10;;;18.50;99.90;;;;;;4998173;28;21185;-81
2022/07/22 09:40:37;;;;;;;0.10;0.10;;;18.50;99.90;;;;;;4995098;28;21047;-81
2022/07/22 09:43:13;;;;;;;0.10;0.10;;;18.40;99.90;;;;;;5014582;28;20813;-80
2022/07/22 09:45:58;;;;;;;0.10;0.10;;;18.50;99.90;;;;;;5006567;28;20943;-80
2022/07/22 09:48:25;;;;;;;0.10;0.10;;;18.20;99.90;;;;;;4986676;28;20939;-80
2022/07/22 09:50:53;;;;;;;0.10;0.10;;;18.30;99.90;;;;;;5005279;28;20527;-81
2022/07/22 09:53:21;;;;;;;0.10;0.10;;;18.10;99.90;;;;;;5005448;28;20459;-80
2022/07/22 09:55:46;;;;;;;0.10;0.10;;;18.10;99.90;;;;;;5009892;28;20446;-80
2022/07/22 09:58:13;;;;;;;0.10;0.10;;;18.10;99.90;;;;;;5012584;28;20491;-80
2022/07/22 10:00:40;;;;;;;0.10;0.10;;;18.20;99.90;;;;;;5008307;28;20180;-81
2022/07/22 10:03:10;;;;;;;0.10;0.10;;;18.50;99.90;;;;;;5009798;28;20826;-80
2022/07/22 10:05:41;;;;;;;0.10;0.10;;;18.70;99.90;;;;;;5019343;28;21016;-81
2022/07/22 10:08:08;;;;;;;0.10;0.10;;;18.90;99.90;;;;;;4990565;28;20451;-82
2022/07/22 10:10:35;;;;;;;0.10;0.10;;;19.00;99.90;;;;;;5006958;28;20455;-81
2022/07/22 10:13:02;;;;;;;0.10;0.00;;;18.90;99.90;;;;;;4993675;28;20443;-81
2022/07/22 10:15:29;;;;;;;0.10;0.00;;;18.80;99.90;;;;;;5009104;28;20516;-81
2022/07/22 10:17:58;;;;;;;0.10;0.10;;;18.80;99.90;;;;;;5011195;28;20538;-80
2022/07/22 10:20:34;;;;;;;0.10;0.10;;;19.00;99.90;;;;;;4985589;28;20941;-81
2022/07/22 10:23:05;;;;;;;0.10;0.00;;;19.00;99.90;;;;;;4998695;28;20521;-83
2022/07/22 10:25:47;;;;;;;0.10;0.10;;;19.20;99.90;;;;;;5004885;28;20485;-82
2022/07/22 10:28:30;;;;;;;0.10;0.00;;;19.10;99.90;;;;;;4999024;28;20441;-82
2022/07/22 10:31:13;;;;;;;0.10;0.00;;;19.00;99.90;;;;;;5005821;28;20792;-82
2022/07/22 10:33:40;;;;;;;0.10;0.00;;;19.30;99.90;;;;;;5011486;28;20501;-83
2022/07/22 10:36:06;;;;;;;0.10;0.00;;;19.20;99.90;;;;;;5008478;28;20487;-82
2022/07/22 10:38:33;;;;;;;0.10;0.00;;;19.40;99.90;;;;;;4993233;28;20538;-82
2022/07/22 10:41:04;;;;;;;0.10;0.10;;;19.50;99.90;;;;;;4992875;28;20188;-83
2022/07/22 10:43:31;;;;;;;0.10;0.10;;;19.60;99.90;;;;;;5006860;28;21279;-83
2022/07/22 10:45:58;;;;;;;0.10;0.00;;;19.70;99.90;;;;;;5002151;28;20881;-82
2022/07/22 10:48:46;;;;;;;0.10;0.00;;;19.80;99.90;;;;;;5011961;28;20442;-83
2022/07/22 10:51:12;;;;;;;0.10;0.10;;;20.20;99.90;;;;;;4992761;28;20444;-82
2022/07/22 10:53:44;;;;;;;0.10;0.00;;;20.10;99.90;;;;;;5008002;28;20447;-83
2022/07/22 10:56:20;;;;;;;0.10;0.00;;;20.20;99.90;;;;;;5004784;28;20447;-82
2022/07/22 10:58:48;;;;;;;0.10;0.00;;;19.80;99.90;;;;;;5000341;28;20508;-82
2022/07/22 11:01:16;;;;;;;0.10;0.10;;;19.90;99.90;;;;;;5005033;28;20497;-83
2022/07/22 11:03:44;;;;;;;0.10;0.10;;;19.50;99.90;;;;;;5010122;28;20435;-83
2022/07/22 11:06:28;;;;;;;0.10;0.10;;;19.50;99.90;;;;;;5023939;28;20529;-83
2022/07/22 11:08:56;;;;;;;0.10;0.10;;;19.50;99.90;;;;;;5014490;28;20446;-84
2022/07/22 11:11:44;;;;;;;0.10;0.00;;;19.50;99.90;;;;;;4991709;28;20428;-84
2022/07/22 11:14:18;;;;;;;0.10;0.00;;;20.20;99.90;;;;;;5008683;28;20453;-84
2022/07/22 11:16:45;;;;;;;0.10;0.00;;;20.80;99.90;;;;;;5009228;28;20529;-82
2022/07/22 11:19:11;;;;;;;0.10;0.00;;;20.80;99.90;;;;;;5009927;28;20458;-84
2022/07/22 11:21:37;;;;;;;0.10;0.00;;;20.50;99.90;;;;;;5007103;28;20436;-83
2022/07/22 11:24:05;;;;;;;0.10;0.00;;;20.40;99.90;;;;;;4994563;28;20208;-84
2022/07/22 11:26:44;;;;;;;0.10;0.00;;;20.30;99.90;;;;;;4990904;28;20448;-83
2022/07/22 11:29:15;;;;;;;0.10;0.10;;;20.30;99.90;;;;;;5003324;28;20480;-82
2022/07/22 11:31:41;;;;;;;0.10;0.00;;;20.30;99.90;;;;;;4982096;28;20846;-82
2022/07/22 11:34:11;;;;;;;0.10;0.00;;;20.00;99.90;;;;;;4992280;28;20443;-82
2022/07/22 11:36:39;;;;;;;0.10;0.00;;;20.10;99.90;;;;;;4993090;28;20195;-82
2022/07/22 11:39:06;;;;;;;0.10;0.00;;;20.10;99.90;;;;;;4991920;28;20446;-82
2022/07/22 11:41:32;;;;;;;0.10;0.00;;;19.90;99.90;;;;;;5011011;28;20443;-82
2022/07/22 11:43:59;;;;;;;0.10;0.00;;;20.10;99.90;;;;;;4990950;28;20457;-84
2022/07/22 11:46:25;;;;;;;0.10;0.00;;;20.30;99.90;;;;;;4993319;28;20193;-83
2022/07/22 11:48:52;;;;;;;0.10;0.00;;;20.30;99.90;;;;;;4991139;28;20451;-83
2022/07/22 11:51:18;;;;;;;0.10;0.00;;;20.40;99.90;;;;;;4987702;28;20889;-82
2022/07/22 11:53:43;;;;;;;0.10;0.00;;;20.40;99.90;;;;;;5008179;28;20447;-83
2022/07/22 11:56:10;;;;;;;0.10;0.00;;;20.20;99.90;;;;;;5010674;28;20862;-83
2022/07/22 11:58:40;;;;;;;0.10;0.00;;;20.00;99.90;;;;;;4994592;28;20605;-80
2022/07/22 12:01:08;;;;;;;0.10;0.00;;;19.90;99.90;;;;;;5004921;28;20832;-81
2022/07/22 12:03:35;;;;;;;0.10;0.10;;;20.00;99.90;;;;;;5000926;28;21025;-84
2022/07/22 12:06:07;;;;;;;0.10;0.00;;;20.40;99.90;;;;;;5007799;28;20928;-82
2022/07/22 12:08:33;;;;;;;0.10;0.00;;;21.00;99.90;;;;;;4993034;28;20455;-83
2022/07/22 12:10:59;;;;;;;0.10;0.00;;;21.00;99.90;;;;;;4995772;28;20946;-83
2022/07/22 12:13:30;;;;;;;0.10;0.00;;;21.00;99.90;;;;;;5016673;28;20513;-85
2022/07/22 12:15:55;;;;;;;0.10;0.00;;;21.00;99.90;;;;;;4996404;28;20459;-82
2022/07/22 12:18:24;;;;;;;0.10;0.00;;;21.20;99.90;;;;;;4999900;28;20493;-82
2022/07/22 12:20:50;;;;;;;0.10;0.00;;;21.20;99.90;;;;;;4988441;28;20185;-82
2022/07/22 12:23:17;;;;;;;0.10;0.00;;;21.40;99.90;;;;;;5000965;28;20451;-83
2022/07/22 12:25:56;;;;;;;0.10;0.00;;;21.60;99.90;;;;;;4986869;28;20514;-83
2022/07/22 12:28:22;;;;;;;0.10;0.00;;;21.30;99.90;;;;;;5003560;28;20505;-82
2022/07/22 12:30:50;;;;;;;0.10;0.00;;;21.10;99.90;;;;;;4997175;28;20455;-83
2022/07/22 12:33:17;;;;;;;0.10;0.00;;;21.20;99.90;;;;;;5010004;28;20464;-83
2022/07/22 12:35:44;;;;;;;0.10;0.00;;;21.60;99.90;;;;;;5002126;28;20490;-82
2022/07/22 12:38:10;;;;;;;0.10;0.00;;;21.30;99.90;;;;;;5012431;28;20439;-82
2022/07/22 12:40:37;;;;;;;0.10;0.00;;;21.20;99.90;;;;;;5004649;28;20498;-82
2022/07/22 12:43:08;;;;;;;0.10;0.00;;;21.60;99.90;;;;;;5004262;28;20447;-82
2022/07/22 12:45:36;;;;;;;0.10;0.00;;;21.40;99.90;;;;;;5007582;28;20490;-80